createdAt,value
2018-02-19T00:00:47.465Z,80.91
2018-02-19T00:01:52.262Z,80.99
2018-02-19T00:02:56.843Z,81.00
2018-02-19T00:04:01.379Z,81.02
2018-02-19T00:05:05.980Z,81.01
2018-02-19T00:06:10.486Z,81.00
2018-02-19T00:07:15.047Z,80.95
2018-02-19T00:08:19.871Z,80.91
2018-02-19T00:09:24.468Z,80.90
2018-02-19T00:10:29.050Z,80.87
2018-02-19T00:11:33.648Z,80.91
2018-02-19T00:12:38.559Z,80.99
2018-02-19T00:13:43.307Z,81.12
2018-02-19T00:14:48.081Z,81.21
2018-02-19T00:15:52.844Z,81.26
2018-02-19T00:16:57.614Z,81.27
2018-02-19T00:18:02.407Z,81.26
2018-02-19T00:19:07.362Z,81.20
2018-02-19T00:20:11.986Z,81.15
2018-02-19T00:21:16.589Z,81.16
2018-02-19T00:22:21.175Z,81.19
2018-02-19T00:23:26.007Z,81.20
2018-02-19T00:24:31.487Z,81.24
2018-02-19T00:25:36.554Z,81.30
2018-02-19T00:26:41.377Z,81.39
2018-02-19T00:27:46.221Z,81.42
2018-02-19T00:28:51.014Z,81.44
2018-02-19T00:29:55.793Z,81.40
2018-02-19T00:31:00.476Z,81.35
2018-02-19T00:32:05.414Z,81.42
2018-02-19T00:33:10.059Z,81.44
2018-02-19T00:34:14.833Z,81.47
2018-02-19T00:35:19.690Z,81.50
2018-02-19T00:36:24.466Z,81.50
2018-02-19T00:37:29.236Z,81.45
2018-02-19T00:38:34.324Z,81.48
2018-02-19T00:39:39.099Z,81.50
2018-02-19T00:40:43.940Z,81.48
2018-02-19T00:41:48.729Z,81.44
2018-02-19T00:42:53.447Z,81.52
2018-02-19T00:43:58.221Z,81.55
2018-02-19T00:45:03.255Z,81.67
2018-02-19T00:46:07.972Z,81.73
2018-02-19T00:47:12.633Z,81.75
2018-02-19T00:48:17.294Z,81.73
2018-02-19T00:49:22.043Z,81.70
2018-02-19T00:50:26.816Z,81.77
2018-02-19T00:51:32.154Z,81.76
2018-02-19T00:52:36.969Z,81.70
2018-02-19T00:53:41.802Z,81.69
2018-02-19T00:54:46.568Z,81.71
2018-02-19T00:55:51.285Z,81.71
2018-02-19T00:56:56.060Z,81.67
2018-02-19T00:58:01.162Z,81.59
2018-02-19T00:59:06.020Z,81.54
2018-02-19T01:00:10.820Z,81.54
2018-02-19T01:01:15.666Z,81.55
2018-02-19T01:02:20.428Z,81.55
2018-02-19T01:03:25.059Z,81.47
2018-02-19T01:04:29.952Z,81.38
2018-02-19T01:05:34.538Z,81.29
2018-02-19T01:06:39.153Z,81.26
2018-02-19T01:07:43.984Z,81.27
2018-02-19T01:08:48.739Z,81.37
2018-02-19T01:09:53.486Z,81.54
2018-02-19T01:10:58.377Z,81.58
2018-02-19T01:12:03.167Z,81.60
2018-02-19T01:13:07.691Z,81.68
2018-02-19T01:14:12.314Z,81.79
2018-02-19T01:15:16.926Z,81.80
2018-02-19T01:16:21.515Z,81.81
2018-02-19T01:17:26.381Z,81.85
2018-02-19T01:18:31.028Z,81.84
2018-02-19T01:19:35.704Z,81.83
2018-02-19T01:20:40.328Z,81.88
2018-02-19T01:21:44.949Z,81.92
2018-02-19T01:22:49.584Z,81.99
2018-02-19T01:23:54.609Z,82.06
2018-02-19T01:24:59.367Z,82.12
2018-02-19T01:26:04.728Z,82.11
2018-02-19T01:27:10.149Z,82.12
2018-02-19T01:28:14.781Z,82.10
2018-02-19T01:29:19.387Z,82.17
2018-02-19T01:30:24.419Z,82.18
2018-02-19T01:31:29.161Z,82.18
2018-02-19T01:32:33.875Z,82.23
2018-02-19T01:33:38.684Z,82.23
2018-02-19T01:34:43.462Z,82.17
2018-02-19T01:35:48.227Z,82.16
2018-02-19T01:36:53.767Z,82.17
2018-02-19T01:37:58.591Z,82.18
2018-02-19T01:39:03.454Z,82.10
2018-02-19T01:40:08.256Z,82.04
2018-02-19T01:41:12.983Z,82.02
2018-02-19T01:42:17.709Z,82.14
2018-02-19T01:43:22.666Z,82.36
2018-02-19T01:44:27.354Z,82.57
2018-02-19T01:45:31.989Z,82.73
2018-02-19T01:46:36.646Z,82.86
2018-02-19T01:47:41.377Z,82.98
2018-02-19T01:48:46.186Z,83.10
2018-02-19T01:49:55.369Z,83.15
2018-02-19T01:51:00.043Z,83.27
2018-02-19T01:52:04.728Z,83.42
2018-02-19T01:53:09.407Z,83.45
2018-02-19T01:54:14.059Z,83.42
2018-02-19T01:55:18.705Z,83.42
2018-02-19T01:56:23.704Z,83.36
2018-02-19T01:57:28.378Z,83.33
2018-02-19T01:58:33.103Z,83.31
2018-02-19T01:59:38.538Z,83.30
2018-02-19T02:00:43.323Z,83.24
2018-02-19T02:01:48.100Z,83.17
2018-02-19T02:02:53.126Z,83.08
2018-02-19T02:03:57.880Z,83.05
2018-02-19T02:05:02.659Z,83.06
2018-02-19T02:06:07.412Z,83.09
2018-02-19T02:07:12.166Z,83.08
2018-02-19T02:08:16.945Z,83.08
2018-02-19T02:09:21.996Z,83.12
2018-02-19T02:10:26.792Z,83.17
2018-02-19T02:11:31.586Z,83.16
2018-02-19T02:12:36.356Z,83.16
2018-02-19T02:13:41.190Z,83.13
2018-02-19T02:14:45.956Z,83.14
2018-02-19T02:15:51.012Z,83.07
2018-02-19T02:16:55.759Z,82.96
2018-02-19T02:18:00.556Z,82.94
2018-02-19T02:19:05.324Z,82.88
2018-02-19T02:20:10.018Z,82.88
2018-02-19T02:21:14.741Z,82.87
2018-02-19T02:22:20.435Z,82.83
2018-02-19T02:23:25.168Z,82.86
2018-02-19T02:24:29.989Z,82.87
2018-02-19T02:25:34.759Z,82.80
2018-02-19T02:26:39.516Z,82.87
2018-02-19T02:27:44.359Z,82.87
2018-02-19T02:28:49.119Z,82.84
2018-02-19T02:29:53.884Z,82.79
2018-02-19T02:30:58.612Z,82.83
2018-02-19T02:32:03.398Z,83.06
2018-02-19T02:33:08.178Z,83.26
2018-02-19T02:34:13.255Z,83.35
2018-02-19T02:35:17.993Z,83.40
2018-02-19T02:36:22.751Z,83.43
2018-02-19T02:37:27.509Z,83.43
2018-02-19T02:38:32.271Z,83.38
2018-02-19T02:39:37.103Z,83.38
2018-02-19T02:40:42.200Z,83.33
2018-02-19T02:41:46.998Z,83.33
2018-02-19T02:42:51.744Z,83.33
2018-02-19T02:43:56.531Z,83.31
2018-02-19T02:45:01.307Z,83.22
2018-02-19T02:46:06.110Z,83.22
2018-02-19T02:47:11.142Z,83.16
2018-02-19T02:48:15.941Z,83.10
2018-02-19T02:49:20.660Z,83.04
2018-02-19T02:50:25.447Z,82.98
2018-02-19T02:51:30.193Z,83.00
2018-02-19T02:52:35.034Z,82.99
2018-02-19T02:53:40.054Z,83.05
2018-02-19T02:54:44.896Z,83.13
2018-02-19T02:55:49.655Z,83.08
2018-02-19T02:56:54.448Z,83.12
2018-02-19T02:57:59.272Z,83.06
2018-02-19T02:59:04.116Z,83.05
2018-02-19T03:00:09.195Z,82.97
2018-02-19T03:01:13.930Z,83.04
2018-02-19T03:02:18.746Z,83.16
2018-02-19T03:03:23.485Z,83.28
2018-02-19T03:04:28.099Z,83.25
2018-02-19T03:05:32.697Z,83.26
2018-02-19T03:06:37.774Z,83.30
2018-02-19T03:07:42.581Z,83.27
2018-02-19T03:08:47.339Z,83.29
2018-02-19T03:09:52.205Z,83.26
2018-02-19T03:10:56.973Z,83.29
2018-02-19T03:12:01.619Z,83.40
2018-02-19T03:13:06.532Z,83.47
2018-02-19T03:14:11.129Z,83.50
2018-02-19T03:15:15.733Z,83.51
2018-02-19T03:16:20.358Z,83.53
2018-02-19T03:17:25.131Z,83.50
2018-02-19T03:18:29.908Z,83.51
2018-02-19T03:19:35.591Z,83.54
2018-02-19T03:20:40.352Z,83.56
2018-02-19T03:21:45.097Z,83.51
2018-02-19T03:22:49.877Z,83.50
2018-02-19T03:23:54.673Z,83.54
2018-02-19T03:24:59.390Z,83.59
2018-02-19T03:26:04.445Z,83.68
2018-02-19T03:27:09.182Z,83.71
2018-02-19T03:28:14.041Z,83.72
2018-02-19T03:29:18.788Z,83.70
2018-02-19T03:30:23.518Z,83.63
2018-02-19T03:31:28.305Z,83.55
2018-02-19T03:32:33.421Z,83.53
2018-02-19T03:33:38.243Z,83.45
2018-02-19T03:34:42.988Z,83.48
2018-02-19T03:35:47.748Z,83.42
2018-02-19T03:36:52.544Z,83.34
2018-02-19T03:37:57.279Z,83.33
2018-02-19T03:39:02.380Z,83.29
2018-02-19T03:40:07.101Z,83.18
2018-02-19T03:41:11.880Z,83.12
2018-02-19T03:42:16.631Z,83.14
2018-02-19T03:43:21.266Z,83.19
2018-02-19T03:44:26.522Z,83.14
2018-02-19T03:45:31.444Z,83.14
2018-02-19T03:46:36.020Z,83.11
2018-02-19T03:47:40.624Z,83.19
2018-02-19T03:48:45.234Z,83.24
2018-02-19T03:49:49.874Z,83.26
2018-02-19T03:50:54.443Z,83.30
2018-02-19T03:51:59.322Z,83.34
2018-02-19T03:53:03.957Z,83.29
2018-02-19T03:54:08.481Z,83.23
2018-02-19T03:55:13.119Z,83.28
2018-02-19T03:56:17.623Z,83.31
2018-02-19T03:57:22.221Z,83.30
2018-02-19T03:58:27.767Z,83.33
2018-02-19T03:59:32.401Z,83.33
2018-02-19T04:00:37.014Z,83.32
2018-02-19T04:01:41.621Z,83.27
2018-02-19T04:02:46.232Z,83.24
2018-02-19T04:03:50.924Z,83.20
2018-02-19T04:04:56.006Z,83.20
2018-02-19T04:06:00.794Z,83.17
2018-02-19T04:07:05.568Z,83.18
2018-02-19T04:08:10.328Z,83.11
2018-02-19T04:09:15.076Z,83.01
2018-02-19T04:10:19.669Z,82.97
2018-02-19T04:11:25.275Z,82.98
2018-02-19T04:12:29.938Z,82.99
2018-02-19T04:13:34.550Z,83.02
2018-02-19T04:14:39.125Z,83.01
2018-02-19T04:15:44.137Z,82.97
2018-02-19T04:16:48.847Z,82.93
2018-02-19T04:17:54.168Z,82.90
2018-02-19T04:18:58.921Z,82.89
2018-02-19T04:20:04.601Z,82.88
2018-02-19T04:21:09.375Z,82.89
2018-02-19T04:22:14.145Z,82.89
2018-02-19T04:23:18.952Z,82.88
2018-02-19T04:24:24.095Z,82.87
2018-02-19T04:25:28.954Z,82.83
2018-02-19T04:26:33.715Z,82.83
2018-02-19T04:27:38.470Z,82.82
2018-02-19T04:28:43.260Z,82.76
2018-02-19T04:29:47.994Z,82.70
2018-02-19T04:30:53.052Z,82.69
2018-02-19T04:31:57.850Z,82.65
2018-02-19T04:33:02.685Z,82.61
2018-02-19T04:34:07.460Z,82.58
2018-02-19T04:35:12.239Z,82.52
2018-02-19T04:36:17.020Z,82.44
2018-02-19T04:37:22.053Z,82.38
2018-02-19T04:38:26.821Z,82.33
2018-02-19T04:39:31.628Z,82.27
2018-02-19T04:40:36.393Z,82.24
2018-02-19T04:41:41.134Z,82.21
2018-02-19T04:42:46.527Z,82.17
2018-02-19T04:43:51.446Z,82.10
2018-02-19T04:44:56.388Z,82.09
2018-02-19T04:46:01.381Z,82.06
2018-02-19T04:47:06.276Z,82.09
2018-02-19T04:48:11.418Z,82.15
2018-02-19T04:49:16.491Z,82.18
2018-02-19T04:50:21.219Z,82.21
2018-02-19T04:51:26.014Z,82.25
2018-02-19T04:52:30.849Z,82.27
2018-02-19T04:53:35.608Z,82.25
2018-02-19T04:54:40.516Z,82.21
2018-02-19T04:55:45.683Z,82.17
2018-02-19T04:56:50.440Z,82.16
2018-02-19T04:57:55.199Z,82.15
2018-02-19T04:59:00.054Z,82.09
2018-02-19T05:00:05.251Z,82.04
2018-02-19T05:01:10.104Z,82.01
2018-02-19T05:02:15.159Z,82.04
2018-02-19T05:03:19.917Z,82.12
2018-02-19T05:04:24.707Z,82.15
2018-02-19T05:05:29.949Z,82.15
2018-02-19T05:06:34.730Z,82.11
2018-02-19T05:07:39.537Z,82.09
2018-02-19T05:08:44.659Z,82.08
2018-02-19T05:09:49.416Z,82.04
2018-02-19T05:10:54.161Z,82.00
2018-02-19T05:11:58.829Z,82.00
2018-02-19T05:13:03.573Z,81.98
2018-02-19T05:14:08.364Z,82.01
2018-02-19T05:15:13.799Z,82.02
2018-02-19T05:16:18.554Z,82.01
2018-02-19T05:17:23.230Z,81.98
2018-02-19T05:18:28.012Z,81.99
2018-02-19T05:19:32.790Z,82.05
2018-02-19T05:20:37.544Z,82.09
2018-02-19T05:21:42.561Z,82.25
2018-02-19T05:22:47.248Z,82.34
2018-02-19T05:23:51.922Z,82.36
2018-02-19T05:24:56.637Z,82.35
2018-02-19T05:26:01.363Z,82.36
2018-02-19T05:27:06.031Z,82.31
2018-02-19T05:28:11.075Z,82.41
2018-02-19T05:29:15.741Z,82.51
2018-02-19T05:30:20.413Z,82.56
2018-02-19T05:31:25.144Z,82.63
2018-02-19T05:32:29.863Z,82.68
2018-02-19T05:33:34.612Z,82.73
2018-02-19T05:34:39.661Z,82.78
2018-02-19T05:35:44.640Z,82.75
2018-02-19T05:36:49.387Z,82.76
2018-02-19T05:37:54.206Z,82.73
2018-02-19T05:38:59.003Z,82.72
2018-02-19T05:40:03.778Z,82.72
2018-02-19T05:41:08.855Z,82.75
2018-02-19T05:42:13.598Z,82.76
2018-02-19T05:43:18.424Z,82.75
2018-02-19T05:44:23.238Z,82.71
2018-02-19T05:45:27.981Z,82.71
2018-02-19T05:46:32.644Z,82.74
2018-02-19T05:47:37.708Z,82.79
2018-02-19T05:48:42.481Z,82.78
2018-02-19T05:49:47.249Z,82.79
2018-02-19T05:50:52.689Z,82.80
2018-02-19T05:51:57.468Z,82.79
2018-02-19T05:53:02.275Z,82.79
2018-02-19T05:54:07.348Z,82.82
2018-02-19T05:55:12.135Z,82.83
2018-02-19T05:56:16.967Z,82.82
2018-02-19T05:57:21.777Z,82.78
2018-02-19T05:58:26.575Z,82.71
2018-02-19T05:59:31.441Z,82.73
2018-02-19T06:00:36.657Z,82.69
2018-02-19T06:01:41.854Z,82.63
2018-02-19T06:02:46.744Z,82.55
2018-02-19T06:03:51.563Z,82.55
2018-02-19T06:04:56.364Z,82.55
2018-02-19T06:06:01.189Z,82.55
2018-02-19T06:07:05.972Z,82.49
2018-02-19T06:08:10.712Z,82.45
2018-02-19T06:09:15.446Z,82.53
2018-02-19T06:10:20.269Z,82.60
2018-02-19T06:11:25.032Z,82.71
2018-02-19T06:12:30.059Z,82.71
2018-02-19T06:13:34.782Z,82.72
2018-02-19T06:14:39.529Z,82.67
2018-02-19T06:15:44.238Z,82.63
2018-02-19T06:16:48.944Z,82.56
2018-02-19T06:17:53.700Z,82.47
2018-02-19T06:18:58.709Z,82.46
2018-02-19T06:20:03.635Z,82.47
2018-02-19T06:21:08.400Z,82.57
2018-02-19T06:22:13.205Z,82.70
2018-02-19T06:23:18.039Z,82.81
2018-02-19T06:24:22.843Z,82.86
2018-02-19T06:25:27.620Z,82.87
2018-02-19T06:26:32.403Z,82.92
2018-02-19T06:27:37.147Z,82.95
2018-02-19T06:28:41.942Z,83.01
2018-02-19T06:29:46.731Z,83.04
2018-02-19T06:30:51.578Z,83.04
2018-02-19T06:31:56.638Z,83.07
2018-02-19T06:33:01.558Z,83.05
2018-02-19T06:34:06.316Z,83.03
2018-02-19T06:35:11.132Z,82.96
2018-02-19T06:36:16.072Z,82.91
2018-02-19T06:37:20.756Z,82.88
2018-02-19T06:38:25.729Z,82.82
2018-02-19T06:39:30.316Z,82.82
2018-02-19T06:40:34.959Z,82.83
2018-02-19T06:41:39.526Z,82.88
2018-02-19T06:42:44.213Z,82.86
2018-02-19T06:43:48.913Z,82.85
2018-02-19T06:44:53.991Z,82.81
2018-02-19T06:45:58.760Z,82.77
2018-02-19T06:47:03.510Z,82.73
2018-02-19T06:48:08.367Z,82.77
2018-02-19T06:49:13.202Z,82.76
2018-02-19T06:50:17.959Z,82.73
2018-02-19T06:51:23.128Z,82.75
2018-02-19T06:52:27.902Z,82.79
2018-02-19T06:53:32.671Z,82.79
2018-02-19T06:54:37.429Z,82.80
2018-02-19T06:55:42.215Z,82.80
2018-02-19T06:56:47.206Z,82.79
2018-02-19T06:57:52.180Z,82.71
2018-02-19T06:58:57.284Z,82.66
2018-02-19T07:00:02.107Z,82.64
2018-02-19T07:01:07.262Z,82.64
2018-02-19T07:02:12.045Z,82.65
2018-02-19T07:03:16.996Z,82.64
2018-02-19T07:04:22.210Z,82.64
2018-02-19T07:05:27.133Z,82.64
2018-02-19T07:06:32.096Z,82.61
2018-02-19T07:07:36.943Z,82.51
2018-02-19T07:08:41.693Z,82.51
2018-02-19T07:09:46.755Z,82.51
2018-02-19T07:10:52.041Z,82.50
2018-02-19T07:11:57.316Z,82.42
2018-02-19T07:13:02.098Z,82.35
2018-02-19T07:14:06.792Z,82.28
2018-02-19T07:15:11.615Z,82.23
2018-02-19T07:16:16.476Z,82.20
2018-02-19T07:17:22.278Z,82.22
2018-02-19T07:18:26.855Z,82.20
2018-02-19T07:19:31.640Z,82.13
2018-02-19T07:20:36.470Z,82.06
2018-02-19T07:21:41.227Z,81.97
2018-02-19T07:22:45.952Z,81.88
2018-02-19T07:23:51.178Z,81.88
2018-02-19T07:24:55.922Z,81.74
2018-02-19T07:26:00.969Z,81.73
2018-02-19T07:27:05.995Z,81.68
2018-02-19T07:28:11.671Z,81.62
2018-02-19T07:29:16.519Z,81.57
2018-02-19T07:30:22.021Z,81.57
2018-02-19T07:31:26.873Z,81.56
2018-02-19T07:32:31.695Z,81.54
2018-02-19T07:33:36.470Z,81.46
2018-02-19T07:34:41.265Z,81.37
2018-02-19T07:35:46.452Z,81.26
2018-02-19T07:36:51.611Z,81.14
2018-02-19T07:37:56.344Z,81.04
2018-02-19T07:39:01.475Z,81.07
2018-02-19T07:40:06.242Z,81.11
2018-02-19T07:41:11.005Z,81.03
2018-02-19T07:42:15.674Z,80.98
2018-02-19T07:43:21.368Z,81.13
2018-02-19T07:44:26.069Z,81.33
2018-02-19T07:45:31.392Z,81.45
2018-02-19T07:46:36.122Z,81.46
2018-02-19T07:47:40.817Z,81.42
2018-02-19T07:48:45.521Z,81.29
2018-02-19T07:49:50.603Z,81.33
2018-02-19T07:50:55.544Z,81.20
2018-02-19T07:52:00.296Z,81.04
2018-02-19T07:53:05.123Z,81.06
2018-02-19T07:54:09.933Z,80.83
2018-02-19T07:55:14.751Z,80.71
2018-02-19T07:56:19.884Z,80.61
2018-02-19T07:57:24.690Z,80.52
2018-02-19T07:58:29.449Z,80.43
2018-02-19T07:59:34.401Z,80.37
2018-02-19T08:00:39.316Z,80.25
2018-02-19T08:01:44.236Z,80.30
2018-02-19T08:02:49.243Z,80.28
2018-02-19T08:03:53.968Z,80.10
2018-02-19T08:04:58.656Z,80.10
2018-02-19T08:06:03.476Z,80.01
2018-02-19T08:07:08.307Z,79.93
2018-02-19T08:08:12.987Z,79.87
2018-02-19T08:09:18.028Z,79.75
2018-02-19T08:10:22.957Z,79.46
2018-02-19T08:11:27.704Z,79.38
2018-02-19T08:12:32.400Z,79.44
2018-02-19T08:13:37.119Z,79.46
2018-02-19T08:14:41.909Z,79.47
2018-02-19T08:15:46.974Z,79.34
2018-02-19T08:16:51.727Z,79.24
2018-02-19T08:17:56.457Z,79.13
2018-02-19T08:19:01.225Z,79.17
2018-02-19T08:20:06.021Z,79.13
2018-02-19T08:21:10.827Z,79.11
2018-02-19T08:22:15.882Z,78.97
2018-02-19T08:23:20.686Z,78.85
2018-02-19T08:24:25.503Z,78.73
2018-02-19T08:25:30.262Z,78.69
2018-02-19T08:26:35.008Z,78.63
2018-02-19T08:27:39.843Z,78.55
2018-02-19T08:28:45.146Z,78.53
2018-02-19T08:29:49.962Z,78.48
2018-02-19T08:30:54.715Z,78.44
2018-02-19T08:31:59.487Z,78.26
2018-02-19T08:33:04.436Z,78.35
2018-02-19T08:34:09.176Z,78.43
2018-02-19T08:35:14.449Z,78.46
2018-02-19T08:36:19.237Z,78.43
2018-02-19T08:37:24.087Z,78.42
2018-02-19T08:38:28.981Z,78.39
2018-02-19T08:39:33.855Z,78.39
2018-02-19T08:40:38.612Z,78.53
2018-02-19T08:41:43.698Z,78.52
2018-02-19T08:42:48.398Z,78.50
2018-02-19T08:43:53.082Z,78.56
2018-02-19T08:44:57.739Z,78.44
2018-02-19T08:46:02.356Z,78.45
2018-02-19T08:47:07.192Z,78.37
2018-02-19T08:48:12.486Z,78.38
2018-02-19T08:49:17.354Z,78.21
2018-02-19T08:50:22.103Z,78.05
2018-02-19T08:51:26.870Z,78.28
2018-02-19T08:52:31.694Z,78.15
2018-02-19T08:53:37.216Z,78.12
2018-02-19T08:54:42.222Z,77.95
2018-02-19T08:55:46.897Z,77.69
2018-02-19T08:56:51.606Z,77.59
2018-02-19T08:57:56.584Z,77.07
2018-02-19T08:59:01.347Z,76.75
2018-02-19T09:00:07.070Z,76.74
2018-02-19T09:01:12.272Z,76.55
2018-02-19T09:02:17.058Z,76.40
2018-02-19T09:03:21.892Z,76.35
2018-02-19T09:04:26.797Z,76.39
2018-02-19T09:05:32.200Z,76.27
2018-02-19T09:06:37.085Z,75.91
2018-02-19T09:07:42.857Z,75.79
2018-02-19T09:08:47.580Z,75.84
2018-02-19T09:09:52.263Z,75.93
2018-02-19T09:10:57.414Z,75.83
2018-02-19T09:12:02.201Z,75.87
2018-02-19T09:13:06.944Z,75.77
2018-02-19T09:14:12.129Z,75.75
2018-02-19T09:15:16.820Z,75.62
2018-02-19T09:16:21.588Z,75.62
2018-02-19T09:17:26.386Z,75.76
2018-02-19T09:18:31.220Z,75.38
2018-02-19T09:19:36.012Z,75.17
2018-02-19T09:20:40.799Z,75.52
2018-02-19T09:21:45.606Z,75.43
2018-02-19T09:22:50.396Z,75.37
2018-02-19T09:23:55.164Z,75.23
2018-02-19T09:24:59.931Z,75.41
2018-02-19T09:26:05.053Z,75.27
2018-02-19T09:27:09.788Z,75.08
2018-02-19T09:28:14.567Z,75.13
2018-02-19T09:29:19.447Z,75.25
2018-02-19T09:30:24.161Z,75.09
2018-02-19T09:31:28.845Z,75.00
2018-02-19T09:32:33.783Z,75.00
2018-02-19T09:33:38.990Z,75.60
2018-02-19T09:34:43.621Z,75.82
2018-02-19T09:35:48.269Z,75.92
2018-02-19T09:36:52.882Z,75.94
2018-02-19T09:37:57.487Z,76.05
2018-02-19T09:39:02.609Z,76.09
2018-02-19T09:40:07.365Z,76.09
2018-02-19T09:41:12.161Z,76.18
2018-02-19T09:42:16.839Z,76.21
2018-02-19T09:43:21.583Z,76.45
2018-02-19T09:44:26.395Z,76.63
2018-02-19T09:45:31.585Z,76.72
2018-02-19T09:46:36.300Z,76.72
2018-02-19T09:47:41.056Z,76.62
2018-02-19T09:48:45.806Z,76.40
2018-02-19T09:49:50.479Z,76.31
2018-02-19T09:50:55.306Z,76.20
2018-02-19T09:52:00.519Z,75.68
2018-02-19T09:53:05.224Z,75.36
2018-02-19T09:54:10.622Z,75.42
2018-02-19T09:55:15.314Z,74.61
2018-02-19T09:56:20.227Z,74.38
2018-02-19T09:57:24.945Z,74.21
2018-02-19T09:58:30.188Z,74.05
2018-02-19T09:59:35.032Z,74.04
2018-02-19T10:00:39.776Z,74.03
2018-02-19T10:01:44.515Z,74.05
2018-02-19T10:02:49.114Z,74.07
2018-02-19T10:03:53.758Z,73.88
2018-02-19T10:04:58.783Z,73.49
2018-02-19T10:06:03.697Z,73.40
2018-02-19T10:07:08.431Z,73.63
2018-02-19T10:08:13.265Z,73.51
2018-02-19T10:09:17.956Z,73.24
2018-02-19T10:10:22.772Z,72.97
2018-02-19T10:11:27.987Z,72.72
2018-02-19T10:12:32.717Z,72.46
2018-02-19T10:13:37.536Z,71.95
2018-02-19T10:14:42.344Z,72.15
2018-02-19T10:15:47.216Z,72.23
2018-02-19T10:16:52.041Z,72.35
2018-02-19T10:17:57.267Z,72.66
2018-02-19T10:19:02.184Z,72.91
2018-02-19T10:20:07.006Z,73.32
2018-02-19T10:21:11.860Z,73.67
2018-02-19T10:22:17.127Z,73.58
2018-02-19T10:23:21.892Z,73.40
2018-02-19T10:24:27.116Z,73.36
2018-02-19T10:25:31.912Z,73.46
2018-02-19T10:26:36.735Z,73.45
2018-02-19T10:27:41.526Z,73.53
2018-02-19T10:28:46.440Z,73.58
2018-02-19T10:29:51.216Z,73.50
2018-02-19T10:30:56.859Z,73.32
2018-02-19T10:32:01.713Z,73.19
2018-02-19T10:33:06.473Z,73.10
2018-02-19T10:34:11.261Z,72.99
2018-02-19T10:35:16.047Z,73.06
2018-02-19T10:36:20.814Z,73.00
2018-02-19T10:37:26.025Z,72.89
2018-02-19T10:38:30.945Z,73.16
2018-02-19T10:39:35.709Z,73.25
2018-02-19T10:40:40.474Z,72.98
2018-02-19T10:41:45.283Z,72.60
2018-02-19T10:42:50.065Z,72.62
2018-02-19T10:43:55.364Z,72.69
2018-02-19T10:45:00.211Z,72.51
2018-02-19T10:46:04.986Z,72.08
2018-02-19T10:47:09.762Z,72.11
2018-02-19T10:48:14.546Z,71.86
2018-02-19T10:49:19.380Z,71.67
2018-02-19T10:50:24.586Z,71.67
2018-02-19T10:51:29.378Z,71.37
2018-02-19T10:52:34.211Z,71.07
2018-02-19T10:53:39.536Z,70.10
2018-02-19T10:54:44.495Z,69.38
2018-02-19T10:55:49.361Z,69.36
2018-02-19T10:56:54.393Z,69.40
2018-02-19T10:57:59.044Z,69.67
2018-02-19T10:59:03.925Z,69.79
2018-02-19T11:00:08.715Z,69.89
2018-02-19T11:01:13.560Z,69.79
2018-02-19T11:02:18.376Z,69.63
2018-02-19T11:03:23.634Z,69.17
2018-02-19T11:04:29.054Z,68.99
2018-02-19T11:05:34.025Z,68.97
2018-02-19T11:06:38.963Z,69.11
2018-02-19T11:07:43.855Z,69.03
2018-02-19T11:08:48.746Z,69.07
2018-02-19T11:09:53.515Z,69.25
2018-02-19T11:10:58.436Z,69.34
2018-02-19T11:12:03.242Z,69.42
2018-02-19T11:13:08.016Z,69.69
2018-02-19T11:14:12.933Z,69.42
2018-02-19T11:15:17.731Z,69.60
2018-02-19T11:16:22.932Z,69.40
2018-02-19T11:17:27.955Z,69.26
2018-02-19T11:18:33.008Z,69.84
2018-02-19T11:19:37.885Z,70.13
2018-02-19T11:20:43.047Z,70.20
2018-02-19T11:21:47.908Z,70.26
2018-02-19T11:22:52.833Z,70.17
2018-02-19T11:23:57.688Z,70.27
2018-02-19T11:25:04.306Z,70.17
2018-02-19T11:26:09.181Z,69.91
2018-02-19T11:27:14.845Z,69.28
2018-02-19T11:28:20.837Z,68.71
2018-02-19T11:29:25.640Z,68.30
2018-02-19T11:30:30.331Z,68.17
2018-02-19T11:31:36.082Z,68.21
2018-02-19T11:32:41.002Z,68.31
2018-02-19T11:33:46.284Z,67.88
2018-02-19T11:34:51.904Z,67.51
2018-02-19T11:35:56.705Z,67.92
2018-02-19T11:37:01.602Z,67.89
2018-02-19T11:38:06.469Z,67.99
2018-02-19T11:39:11.216Z,68.20
2018-02-19T11:40:17.260Z,68.19
2018-02-19T11:41:22.590Z,68.03
2018-02-19T11:42:27.377Z,68.10
2018-02-19T11:43:32.200Z,68.02
2018-02-19T11:44:36.974Z,68.07
2018-02-19T11:45:41.835Z,67.75
2018-02-19T11:46:46.658Z,67.53
2018-02-19T11:47:53.005Z,67.39
2018-02-19T11:48:57.839Z,67.42
2018-02-19T11:50:02.771Z,67.58
2018-02-19T11:51:07.626Z,67.59
2018-02-19T11:52:12.397Z,67.41
2018-02-19T11:53:17.241Z,67.43
2018-02-19T11:54:22.557Z,67.87
2018-02-19T11:55:27.427Z,68.35
2018-02-19T11:56:32.280Z,68.44
2018-02-19T11:57:37.160Z,68.45
2018-02-19T11:58:42.096Z,68.57
2018-02-19T11:59:46.850Z,68.76
2018-02-19T12:00:52.054Z,68.70
2018-02-19T12:01:56.902Z,68.68
2018-02-19T12:03:01.650Z,68.47
2018-02-19T12:04:06.431Z,68.42
2018-02-19T12:05:12.063Z,68.72
2018-02-19T12:06:16.898Z,68.90
2018-02-19T12:07:22.430Z,68.89
2018-02-19T12:08:27.329Z,68.85
2018-02-19T12:09:32.146Z,68.89
2018-02-19T12:10:37.178Z,68.84
2018-02-19T12:11:42.058Z,68.79
2018-02-19T12:12:47.841Z,68.52
2018-02-19T12:13:52.938Z,68.39
2018-02-19T12:14:57.752Z,68.36
2018-02-19T12:16:02.673Z,68.26
2018-02-19T12:17:07.630Z,68.06
2018-02-19T12:18:12.431Z,67.88
2018-02-19T12:19:18.243Z,67.73
2018-02-19T12:20:23.158Z,67.47
2018-02-19T12:21:28.033Z,67.35
2018-02-19T12:22:32.868Z,67.50
2018-02-19T12:23:37.807Z,67.58
2018-02-19T12:24:42.795Z,67.54
2018-02-19T12:25:48.048Z,67.41
2018-02-19T12:26:53.066Z,67.42
2018-02-19T12:27:58.330Z,67.36
2018-02-19T12:29:03.823Z,67.10
2018-02-19T12:30:08.715Z,66.90
2018-02-19T12:31:13.622Z,66.72
2018-02-19T12:32:18.838Z,66.50
2018-02-19T12:33:23.540Z,66.13
2018-02-19T12:34:28.478Z,66.12
2018-02-19T12:35:33.952Z,65.70
2018-02-19T12:36:38.826Z,65.41
2018-02-19T12:37:44.006Z,64.75
2018-02-19T12:38:48.991Z,64.53
2018-02-19T12:39:53.963Z,63.80
2018-02-19T12:40:58.731Z,63.31
2018-02-19T12:42:04.501Z,63.16
2018-02-19T12:43:10.349Z,62.81
2018-02-19T12:44:15.914Z,62.99
2018-02-19T12:45:20.801Z,63.07
2018-02-19T12:46:26.103Z,62.99
2018-02-19T12:47:30.963Z,62.67
2018-02-19T12:48:35.988Z,62.54
2018-02-19T12:49:40.928Z,62.01
2018-02-19T12:50:46.652Z,61.89
2018-02-19T12:51:51.727Z,61.76
2018-02-19T12:52:56.660Z,61.61
2018-02-19T12:54:03.008Z,61.00
2018-02-19T12:55:08.468Z,60.38
2018-02-19T12:56:13.688Z,60.20
2018-02-19T12:57:18.965Z,60.19
2018-02-19T12:58:23.856Z,60.52
2018-02-19T12:59:29.605Z,60.87
2018-02-19T13:00:34.654Z,61.34
2018-02-19T13:01:39.879Z,61.59
2018-02-19T13:02:44.795Z,61.57
2018-02-19T13:03:50.089Z,61.26
2018-02-19T13:04:54.960Z,60.68
2018-02-19T13:05:59.876Z,60.55
2018-02-19T13:07:04.675Z,60.59
2018-02-19T13:08:09.578Z,60.78
2018-02-19T13:09:14.394Z,60.70
2018-02-19T13:10:19.341Z,60.28
2018-02-19T13:11:24.118Z,59.78
2018-02-19T13:12:29.393Z,59.50
2018-02-19T13:13:34.053Z,59.70
2018-02-19T13:14:40.053Z,60.16
2018-02-19T13:15:45.585Z,59.68
2018-02-19T13:16:51.146Z,59.64
2018-02-19T13:17:56.111Z,59.66
2018-02-19T13:19:00.915Z,59.58
2018-02-19T13:20:07.996Z,59.90
2018-02-19T13:21:12.847Z,59.84
2018-02-19T13:22:17.749Z,59.89
2018-02-19T13:23:23.024Z,59.87
2018-02-19T13:24:27.860Z,59.89
2018-02-19T13:25:32.760Z,60.03
2018-02-19T13:26:37.807Z,59.93
2018-02-19T13:27:43.495Z,59.48
2018-02-19T13:28:48.510Z,59.41
2018-02-19T13:29:53.387Z,59.27
2018-02-19T13:30:59.598Z,59.11
2018-02-19T13:32:04.456Z,59.06
2018-02-19T13:33:10.062Z,58.37
2018-02-19T13:34:17.790Z,58.19
2018-02-19T13:35:22.635Z,58.58
2018-02-19T13:36:27.504Z,58.61
2018-02-19T13:37:32.672Z,58.47
2018-02-19T13:38:38.298Z,58.26
2018-02-19T13:39:43.929Z,57.77
2018-02-19T13:40:49.636Z,57.56
2018-02-19T13:41:57.566Z,58.08
2018-02-19T13:43:04.757Z,58.28
2018-02-19T13:44:12.668Z,58.52
2018-02-19T13:45:18.661Z,58.86
2018-02-19T13:46:24.139Z,59.09
2018-02-19T13:47:30.791Z,59.01
2018-02-19T13:48:36.172Z,58.92
2018-02-19T13:49:41.034Z,58.93
2018-02-19T13:50:46.796Z,59.14
2018-02-19T13:51:53.415Z,59.42
2018-02-19T13:53:01.723Z,59.40
2018-02-19T13:54:08.788Z,59.71
2018-02-19T13:55:13.975Z,59.77
2018-02-19T13:56:20.361Z,59.72